createdAt,value
2023-05-16T00:00:25.807Z,993.6
2023-05-16T00:01:42.600Z,993.6
2023-05-16T00:03:00.044Z,993.6
2023-05-16T00:04:16.610Z,993.6
2023-05-16T00:05:33.557Z,993.6
2023-05-16T00:06:51.055Z,993.6
2023-05-16T00:08:07.683Z,993.6
2023-05-16T00:09:24.687Z,993.6
2023-05-16T00:10:41.551Z,993.6
2023-05-16T00:11:58.552Z,993.6
2023-05-16T00:13:15.607Z,993.6
2023-05-16T00:14:32.640Z,993.6
2023-05-16T00:15:49.552Z,993.7
2023-05-16T00:17:06.990Z,993.7
2023-05-16T00:18:23.598Z,993.6
2023-05-16T00:19:40.569Z,993.7
2023-05-16T00:20:57.654Z,993.7
2023-05-16T00:22:14.585Z,993.7
2023-05-16T00:23:32.067Z,993.7
2023-05-16T00:24:48.559Z,993.7
2023-05-16T00:26:05.572Z,993.8
2023-05-16T00:27:22.568Z,993.8
2023-05-16T00:28:39.608Z,993.7
2023-05-16T00:29:56.638Z,993.7
2023-05-16T00:31:13.595Z,993.7
2023-05-16T00:32:30.614Z,993.7
2023-05-16T00:33:47.588Z,993.7
2023-05-16T00:35:04.647Z,993.7
2023-05-16T00:36:23.774Z,993.7
2023-05-16T00:37:38.708Z,993.7
2023-05-16T00:38:55.581Z,993.7
2023-05-16T00:40:12.605Z,993.7
2023-05-16T00:41:29.582Z,993.8
2023-05-16T00:42:46.590Z,993.7
2023-05-16T00:44:03.653Z,993.8
2023-05-16T00:45:20.653Z,993.8
2023-05-16T00:46:37.703Z,993.8
2023-05-16T00:47:54.639Z,993.8
2023-05-16T00:49:11.624Z,993.8
2023-05-16T00:50:28.740Z,993.8
2023-05-16T00:51:45.608Z,993.8
2023-05-16T00:53:03.204Z,993.8
2023-05-16T00:54:19.630Z,993.8
2023-05-16T00:55:36.628Z,993.7
2023-05-16T00:56:53.627Z,993.8
2023-05-16T00:58:10.643Z,993.8
2023-05-16T00:59:27.921Z,993.8
2023-05-16T01:00:47.201Z,993.8
2023-05-16T01:02:02.778Z,993.8
2023-05-16T01:03:19.793Z,993.8
2023-05-16T01:04:36.613Z,993.8
2023-05-16T01:05:53.698Z,993.7
2023-05-16T01:07:10.977Z,993.8
2023-05-16T01:08:27.734Z,993.8
2023-05-16T01:09:45.025Z,993.8
2023-05-16T01:11:01.694Z,993.8
2023-05-16T01:12:18.637Z,993.8
2023-05-16T01:13:35.642Z,993.8
2023-05-16T01:14:52.640Z,993.8
2023-05-16T01:16:09.693Z,993.8
2023-05-16T01:17:26.784Z,993.8
2023-05-16T01:18:43.700Z,993.7
2023-05-16T01:20:00.636Z,993.7
2023-05-16T01:21:17.635Z,993.7
2023-05-16T01:22:34.666Z,993.8
2023-05-16T01:23:52.217Z,993.8
2023-05-16T01:25:08.642Z,993.8
2023-05-16T01:26:25.784Z,993.8
2023-05-16T01:27:42.899Z,993.8
2023-05-16T01:29:00.097Z,993.9
2023-05-16T01:30:16.759Z,993.9
2023-05-16T01:31:33.693Z,993.9
2023-05-16T01:32:50.876Z,993.9
2023-05-16T01:34:07.692Z,993.9
2023-05-16T01:35:24.843Z,993.9
2023-05-16T01:36:41.770Z,993.9
2023-05-16T01:37:58.676Z,993.9
2023-05-16T01:39:15.935Z,993.9
2023-05-16T01:40:32.695Z,993.9
2023-05-16T01:41:49.684Z,993.9
2023-05-16T01:43:06.723Z,993.9
2023-05-16T01:44:24.179Z,993.9
2023-05-16T01:45:41.732Z,994
2023-05-16T01:46:58.722Z,994
2023-05-16T01:48:15.736Z,993.9
2023-05-16T01:49:32.716Z,994
2023-05-16T01:50:49.691Z,994.1
2023-05-16T01:52:06.681Z,994.1
2023-05-16T01:53:23.675Z,994.1
2023-05-16T01:54:40.764Z,994.1
2023-05-16T01:55:57.672Z,994.1
2023-05-16T01:57:14.690Z,994.1
2023-05-16T01:58:31.692Z,994.1
2023-05-16T01:59:48.750Z,994.1
2023-05-16T02:01:06.003Z,994.1
2023-05-16T02:02:22.808Z,994.1
2023-05-16T02:03:39.761Z,994.2
2023-05-16T02:04:56.831Z,994.1
2023-05-16T02:06:13.707Z,994.2
2023-05-16T02:07:30.715Z,994.2
2023-05-16T02:08:47.702Z,994.2
2023-05-16T02:10:04.925Z,994.2
2023-05-16T02:11:21.711Z,994.2
2023-05-16T02:12:38.713Z,994.2
2023-05-16T02:13:55.712Z,994.2
2023-05-16T02:15:12.754Z,994.2
2023-05-16T02:16:29.850Z,994.3
2023-05-16T02:17:46.781Z,994.3
2023-05-16T02:19:03.791Z,994.3
2023-05-16T02:20:20.813Z,994.3
2023-05-16T02:21:37.786Z,994.3
2023-05-16T02:22:54.724Z,994.3
2023-05-16T02:24:11.802Z,994.3
2023-05-16T02:25:28.819Z,994.3
2023-05-16T02:26:45.834Z,994.3
2023-05-16T02:28:02.756Z,994.3
2023-05-16T02:29:19.751Z,994.3
2023-05-16T02:30:36.765Z,994.3
2023-05-16T02:31:53.771Z,994.3
2023-05-16T02:33:10.783Z,994.3
2023-05-16T02:34:27.774Z,994.3
2023-05-16T02:35:44.817Z,994.3
2023-05-16T02:37:01.756Z,994.3
2023-05-16T02:38:19.014Z,994.2
2023-05-16T02:39:35.774Z,994.2
2023-05-16T02:40:52.798Z,994.2
2023-05-16T02:42:09.767Z,994.2
2023-05-16T02:43:26.792Z,994.2
2023-05-16T02:44:43.800Z,994.2
2023-05-16T02:46:00.778Z,994.2
2023-05-16T02:47:17.792Z,994.2
2023-05-16T02:48:34.856Z,994.2
2023-05-16T02:49:51.772Z,994.2
2023-05-16T02:51:08.896Z,994.3
2023-05-16T02:52:25.839Z,994.3
2023-05-16T02:53:42.956Z,994.3
2023-05-16T02:55:16.617Z,994.3
2023-05-16T02:56:16.855Z,994.4
2023-05-16T02:57:33.773Z,994.4
2023-05-16T02:58:50.829Z,994.4
2023-05-16T03:00:07.872Z,994.3
2023-05-16T03:01:24.810Z,994.3
2023-05-16T03:02:41.832Z,994.3
2023-05-16T03:03:58.976Z,994.3
2023-05-16T03:05:15.923Z,994.3
2023-05-16T03:06:32.827Z,994.3
2023-05-16T03:07:49.865Z,994.3
2023-05-16T03:09:07.192Z,994.3
2023-05-16T03:10:23.790Z,994.3
2023-05-16T03:11:40.809Z,994.3
2023-05-16T03:12:57.790Z,994.3
2023-05-16T03:14:14.860Z,994.4
2023-05-16T03:15:31.871Z,994.4
2023-05-16T03:16:48.821Z,994.4
2023-05-16T03:18:05.850Z,994.4
2023-05-16T03:19:22.879Z,994.4
2023-05-16T03:20:39.838Z,994.4
2023-05-16T03:21:56.819Z,994.4
2023-05-16T03:23:13.976Z,994.4
2023-05-16T03:24:30.901Z,994.4
2023-05-16T03:25:47.958Z,994.4
2023-05-16T03:27:04.902Z,994.5
2023-05-16T03:28:21.974Z,994.4
2023-05-16T03:29:38.822Z,994.5
2023-05-16T03:30:55.856Z,994.5
2023-05-16T03:32:12.876Z,994.5
2023-05-16T03:33:29.884Z,994.5
2023-05-16T03:34:47.003Z,994.5
2023-05-16T03:36:03.888Z,994.5
2023-05-16T03:37:20.896Z,994.5
2023-05-16T03:38:37.949Z,994.5
2023-05-16T03:39:54.925Z,994.5
2023-05-16T03:41:11.894Z,994.5
2023-05-16T03:42:28.874Z,994.5
2023-05-16T03:43:45.883Z,994.6
2023-05-16T03:45:02.895Z,994.6
2023-05-16T03:46:20.096Z,994.6
2023-05-16T03:47:36.918Z,994.6
2023-05-16T03:48:53.865Z,994.7
2023-05-16T03:50:10.951Z,994.7
2023-05-16T03:51:27.864Z,994.7
2023-05-16T03:52:44.866Z,994.7
2023-05-16T03:54:01.884Z,994.7
2023-05-16T03:55:19.469Z,994.7
2023-05-16T03:56:36.855Z,994.7
2023-05-16T03:57:53.899Z,994.7
2023-05-16T03:59:10.926Z,994.7
2023-05-16T04:00:27.939Z,994.7
2023-05-16T04:01:44.929Z,994.7
2023-05-16T04:03:01.906Z,994.8
2023-05-16T04:04:18.867Z,994.8
2023-05-16T04:05:36.033Z,994.8
2023-05-16T04:06:52.875Z,994.8
2023-05-16T04:08:09.895Z,994.9
2023-05-16T04:09:26.909Z,994.9
2023-05-16T04:10:43.961Z,994.9
2023-05-16T04:12:00.890Z,995
2023-05-16T04:13:18.119Z,995
2023-05-16T04:14:35.785Z,995.1
2023-05-16T04:15:53.059Z,995.1
2023-05-16T04:17:10.849Z,995.2
2023-05-16T04:18:27.917Z,995.2
2023-05-16T04:19:44.923Z,995.3
2023-05-16T04:21:01.968Z,995.3
2023-05-16T04:22:19.207Z,995.3
2023-05-16T04:23:35.906Z,995.4
2023-05-16T04:24:52.992Z,995.4
2023-05-16T04:26:09.960Z,995.4
2023-05-16T04:27:26.916Z,995.3
2023-05-16T04:28:43.938Z,995.4
2023-05-16T04:30:00.916Z,995.4
2023-05-16T04:31:18.012Z,995.5
2023-05-16T04:32:35.043Z,995.5
2023-05-16T04:33:51.944Z,995.6
2023-05-16T04:35:08.948Z,995.6
2023-05-16T04:36:25.961Z,995.6
2023-05-16T04:37:43.150Z,995.6
2023-05-16T04:39:00.010Z,995.6
2023-05-16T04:40:16.930Z,995.6
2023-05-16T04:41:34.029Z,995.6
2023-05-16T04:42:51.024Z,995.6
2023-05-16T04:44:08.041Z,995.5
2023-05-16T04:45:25.121Z,995.5
2023-05-16T04:46:42.079Z,995.4
2023-05-16T04:47:59.022Z,995.3
2023-05-16T04:49:15.976Z,995.2
2023-05-16T04:50:32.967Z,995.2
2023-05-16T04:51:49.971Z,995.1
2023-05-16T04:53:06.984Z,995.1
2023-05-16T04:54:23.990Z,995.1
2023-05-16T04:55:41.048Z,995.1
2023-05-16T04:56:58.019Z,995.2
2023-05-16T04:58:14.961Z,995.2
2023-05-16T04:59:31.991Z,995.2
2023-05-16T05:00:49.064Z,995.3
2023-05-16T05:02:06.089Z,995.3
2023-05-16T05:03:22.970Z,995.4
2023-05-16T05:04:40.028Z,995.4
2023-05-16T05:05:56.985Z,995.4
2023-05-16T05:07:14.038Z,995.4
2023-05-16T05:08:31.012Z,995.5
2023-05-16T05:09:48.019Z,995.5
2023-05-16T05:11:05.058Z,995.6
2023-05-16T05:12:22.023Z,995.6
2023-05-16T05:13:39.051Z,995.6
2023-05-16T05:14:56.340Z,995.7
2023-05-16T05:16:13.001Z,995.8
2023-05-16T05:17:30.072Z,995.8
2023-05-16T05:18:47.146Z,995.9
2023-05-16T05:20:04.035Z,995.9
2023-05-16T05:21:21.025Z,996
2023-05-16T05:22:37.998Z,996
2023-05-16T05:23:55.142Z,996
2023-05-16T05:25:12.003Z,996
2023-05-16T05:26:29.051Z,996.1
2023-05-16T05:27:46.119Z,996.1
2023-05-16T05:29:05.632Z,996.1
2023-05-16T05:30:20.606Z,996.1
2023-05-16T05:31:37.157Z,996.1
2023-05-16T05:32:54.044Z,996.2
2023-05-16T05:34:11.044Z,996.1
2023-05-16T05:35:28.276Z,996.2
2023-05-16T05:36:45.057Z,996.2
2023-05-16T05:38:02.109Z,996.3
2023-05-16T05:39:19.012Z,996.3
2023-05-16T05:40:36.022Z,996.3
2023-05-16T05:41:53.029Z,996.3
2023-05-16T05:43:10.083Z,996.3
2023-05-16T05:44:27.086Z,996.3
2023-05-16T05:45:44.114Z,996.3
2023-05-16T05:47:01.014Z,996.3
2023-05-16T05:48:18.102Z,996.3
2023-05-16T05:49:35.046Z,996.3
2023-05-16T05:50:52.045Z,996.3
2023-05-16T05:52:09.098Z,996.3
2023-05-16T05:53:26.086Z,996.3
2023-05-16T05:54:43.072Z,996.3
2023-05-16T05:56:00.065Z,996.3
2023-05-16T05:57:17.097Z,996.2
2023-05-16T05:58:34.049Z,996.1
2023-05-16T05:59:51.101Z,996.1
2023-05-16T06:01:08.161Z,996.1
2023-05-16T06:02:25.183Z,996.1
2023-05-16T06:03:42.062Z,996.1
2023-05-16T06:04:59.066Z,996.1
2023-05-16T06:06:16.147Z,996.1
2023-05-16T06:07:33.099Z,996.1
2023-05-16T06:08:50.079Z,996.1
2023-05-16T06:10:07.122Z,996.1
2023-05-16T06:11:24.524Z,996.1
2023-05-16T06:12:41.070Z,996.1
2023-05-16T06:13:58.126Z,996.2
2023-05-16T06:15:15.075Z,996.1
2023-05-16T06:16:32.168Z,996.1
2023-05-16T06:17:49.121Z,996.1
2023-05-16T06:19:06.148Z,996.1
2023-05-16T06:20:23.104Z,996.2
2023-05-16T06:21:40.110Z,996.2
2023-05-16T06:22:57.106Z,996.2
2023-05-16T06:24:14.158Z,996.2
2023-05-16T06:25:31.136Z,996.2
2023-05-16T06:26:48.086Z,996.3
2023-05-16T06:28:05.090Z,996.3
2023-05-16T06:29:22.126Z,996.3
2023-05-16T06:30:39.186Z,996.3
2023-05-16T06:31:56.253Z,996.3
2023-05-16T06:33:13.090Z,996.3
2023-05-16T06:34:30.219Z,996.3
2023-05-16T06:35:47.140Z,996.2
2023-05-16T06:37:04.107Z,996.2
2023-05-16T06:38:21.123Z,996.2
2023-05-16T06:39:38.106Z,996.1
2023-05-16T06:40:55.161Z,996
2023-05-16T06:42:12.106Z,996
2023-05-16T06:43:29.117Z,996
2023-05-16T06:44:46.195Z,996
2023-05-16T06:46:03.182Z,996
2023-05-16T06:47:20.171Z,996
2023-05-16T06:48:37.115Z,996
2023-05-16T06:49:54.173Z,996
2023-05-16T06:51:11.140Z,996
2023-05-16T06:52:28.222Z,996.1
2023-05-16T06:53:45.150Z,996.1
2023-05-16T06:55:02.172Z,996.2
2023-05-16T06:56:19.130Z,996.2
2023-05-16T06:57:36.177Z,996.3
2023-05-16T06:58:53.173Z,996.4
2023-05-16T07:00:10.224Z,996.4
2023-05-16T07:01:27.220Z,996.3
2023-05-16T07:02:44.395Z,996.3
2023-05-16T07:04:01.269Z,996.4
2023-05-16T07:05:18.204Z,996.3
2023-05-16T07:06:35.148Z,996.3
2023-05-16T07:07:52.540Z,996.2
2023-05-16T07:09:09.161Z,996.2
2023-05-16T07:10:26.217Z,996.2
2023-05-16T07:11:43.276Z,996.2
2023-05-16T07:13:00.545Z,996.2
2023-05-16T07:14:17.174Z,996.1
2023-05-16T07:15:34.207Z,996.1
2023-05-16T07:16:51.220Z,996.2
2023-05-16T07:18:08.343Z,996.2
2023-05-16T07:19:25.256Z,996.4
2023-05-16T07:20:42.222Z,996.3
2023-05-16T07:21:59.192Z,996.1
2023-05-16T07:23:16.197Z,996.1
2023-05-16T07:24:33.199Z,996.1
2023-05-16T07:25:50.217Z,996.3
2023-05-16T07:27:07.176Z,996.3
2023-05-16T07:28:24.277Z,996.4
2023-05-16T07:29:41.215Z,996.2
2023-05-16T07:30:58.206Z,996.1
2023-05-16T07:32:15.261Z,996.1
2023-05-16T07:33:32.525Z,996
2023-05-16T07:34:49.227Z,996
2023-05-16T07:36:15.852Z,995.9
2023-05-16T07:37:23.239Z,995.9
2023-05-16T07:38:40.228Z,995.9
2023-05-16T07:39:57.235Z,995.9
2023-05-16T07:41:14.242Z,996
2023-05-16T07:42:31.278Z,995.9
2023-05-16T07:43:51.033Z,996
2023-05-16T07:45:08.510Z,996
2023-05-16T07:46:25.315Z,996
2023-05-16T07:47:42.466Z,996
2023-05-16T07:48:59.289Z,996.1
2023-05-16T07:50:16.287Z,996
2023-05-16T07:51:33.245Z,996
2023-05-16T07:52:50.277Z,996
2023-05-16T07:54:07.260Z,996
2023-05-16T07:55:24.487Z,996
2023-05-16T07:56:41.228Z,996
2023-05-16T07:57:58.300Z,996
2023-05-16T07:59:15.850Z,996.1
2023-05-16T08:00:32.287Z,996.1
2023-05-16T08:01:49.292Z,996.2
2023-05-16T08:03:06.376Z,996.3
2023-05-16T08:04:23.290Z,996.3
2023-05-16T08:05:40.311Z,996.2
2023-05-16T08:06:57.259Z,996.3
2023-05-16T08:08:14.303Z,996.5
2023-05-16T08:09:31.304Z,996.4
2023-05-16T08:10:48.485Z,996.4
2023-05-16T08:12:05.312Z,996.4
2023-05-16T08:13:22.285Z,996.4
2023-05-16T08:14:39.273Z,996.4
2023-05-16T08:15:56.812Z,996.4
2023-05-16T08:17:13.286Z,996.6
2023-05-16T08:18:30.357Z,996.5
2023-05-16T08:19:47.312Z,996.5
2023-05-16T08:21:04.394Z,996.5
2023-05-16T08:22:21.334Z,996.5
2023-05-16T08:23:38.292Z,996.5
2023-05-16T08:24:55.322Z,996.5
2023-05-16T08:26:14.309Z,996.5
2023-05-16T08:27:31.303Z,996.6
2023-05-16T08:28:48.295Z,996.5
2023-05-16T08:30:05.390Z,996.5
2023-05-16T08:31:22.358Z,996.6
2023-05-16T08:32:39.311Z,996.6
2023-05-16T08:33:56.342Z,996.7
2023-05-16T08:35:13.406Z,996.7
2023-05-16T08:36:30.307Z,996.7
2023-05-16T08:37:47.281Z,996.7
2023-05-16T08:39:04.386Z,997
2023-05-16T08:40:21.349Z,996.8
2023-05-16T08:41:38.333Z,996.9
2023-05-16T08:42:55.312Z,996.8
2023-05-16T08:44:12.385Z,996.9
2023-05-16T08:45:29.540Z,997
2023-05-16T08:46:46.394Z,997.1
2023-05-16T08:48:06.014Z,997.2
2023-05-16T08:49:22.373Z,997.2
2023-05-16T08:50:39.396Z,997.1
2023-05-16T08:51:56.338Z,997
2023-05-16T08:53:13.336Z,997.1
2023-05-16T08:54:30.414Z,997
2023-05-16T08:55:47.334Z,997.2
2023-05-16T08:57:04.344Z,997.3
2023-05-16T08:58:21.354Z,997.3
2023-05-16T08:59:38.374Z,997.1
2023-05-16T09:00:55.470Z,997.3
2023-05-16T09:02:12.363Z,997.3
2023-05-16T09:03:29.387Z,997.1
2023-05-16T09:04:46.346Z,997.2
2023-05-16T09:06:04.536Z,997.3
2023-05-16T09:07:20.425Z,997.3
2023-05-16T09:08:37.366Z,997.3
2023-05-16T09:09:54.374Z,997.4
2023-05-16T09:11:11.425Z,997.4
2023-05-16T09:12:28.379Z,997.1
2023-05-16T09:13:45.403Z,997
2023-05-16T09:15:02.403Z,997.2
2023-05-16T09:16:19.435Z,997.4
2023-05-16T09:17:39.724Z,997.4
2023-05-16T09:18:53.422Z,997.5
2023-05-16T09:20:10.361Z,997.5
2023-05-16T09:21:27.441Z,997.4
2023-05-16T09:22:44.448Z,997.5
2023-05-16T09:24:01.379Z,997.6
2023-05-16T09:25:28.252Z,997.5
2023-05-16T09:26:35.390Z,997.6
2023-05-16T09:27:52.463Z,997.5
2023-05-16T09:29:09.413Z,997.5
2023-05-16T09:30:26.413Z,997.6
2023-05-16T09:31:43.523Z,997.6
2023-05-16T09:33:00.607Z,997.6
2023-05-16T09:34:17.413Z,997.6
2023-05-16T09:35:44.575Z,997.6
2023-05-16T09:36:51.436Z,997.7
2023-05-16T09:38:08.492Z,997.7
2023-05-16T09:39:25.429Z,997.6
2023-05-16T09:40:42.402Z,997.6
2023-05-16T09:41:59.438Z,997.7
2023-05-16T09:43:16.895Z,997.6
2023-05-16T09:44:33.442Z,997.6
2023-05-16T09:45:50.473Z,997.7
2023-05-16T09:47:07.464Z,997.8
2023-05-16T09:48:24.494Z,997.9
2023-05-16T09:49:41.461Z,998
2023-05-16T09:50:58.452Z,998
2023-05-16T09:52:18.595Z,998
2023-05-16T09:53:35.449Z,997.9
2023-05-16T09:54:52.508Z,997.8
2023-05-16T09:56:09.459Z,997.8
2023-05-16T09:57:26.487Z,997.9
2023-05-16T09:58:43.472Z,997.9
2023-05-16T10:00:00.459Z,998
2023-05-16T10:01:17.508Z,998
2023-05-16T10:02:37.125Z,998.1
2023-05-16T10:03:53.530Z,998.1
2023-05-16T10:05:10.438Z,998.1
2023-05-16T10:06:27.594Z,998.2
2023-05-16T10:07:44.523Z,998.2
2023-05-16T10:09:02.887Z,998.3
2023-05-16T10:10:18.532Z,998.3
2023-05-16T10:11:35.510Z,998.2
2023-05-16T10:12:52.497Z,998.3
2023-05-16T10:14:09.518Z,998.2
2023-05-16T10:15:26.779Z,998.2
2023-05-16T10:16:43.687Z,998.1
2023-05-16T10:18:00.681Z,998.2
2023-05-16T10:19:17.538Z,998
2023-05-16T10:20:34.485Z,998
2023-05-16T10:21:51.577Z,998
2023-05-16T10:23:08.549Z,998
2023-05-16T10:24:25.496Z,998
2023-05-16T10:25:42.514Z,998
2023-05-16T10:26:59.511Z,998
2023-05-16T10:28:16.536Z,998
2023-05-16T10:29:43.222Z,998
2023-05-16T10:30:50.565Z,998
2023-05-16T10:32:07.538Z,998
2023-05-16T10:33:24.566Z,998
2023-05-16T10:34:41.495Z,998
2023-05-16T10:35:58.749Z,998
2023-05-16T10:37:15.522Z,998
2023-05-16T10:38:32.588Z,998
2023-05-16T10:39:49.520Z,998
2023-05-16T10:41:06.503Z,997.9
2023-05-16T10:42:23.532Z,997.9
2023-05-16T10:43:41.990Z,997.9
2023-05-16T10:45:04.735Z,997.9
2023-05-16T10:46:14.693Z,998
2023-05-16T10:47:31.552Z,998
2023-05-16T10:48:50.062Z,998
2023-05-16T10:50:06.028Z,998.1
2023-05-16T10:51:22.646Z,998.2
2023-05-16T10:52:39.524Z,998.1
2023-05-16T10:53:56.568Z,998.1
2023-05-16T10:55:13.570Z,998.1
2023-05-16T10:56:30.971Z,998.1
2023-05-16T10:57:47.561Z,998.1
2023-05-16T10:59:04.564Z,998
2023-05-16T11:00:21.636Z,998
2023-05-16T11:01:38.576Z,998
2023-05-16T11:02:55.603Z,998
2023-05-16T11:04:12.569Z,998
2023-05-16T11:05:30.668Z,998
2023-05-16T11:06:47.621Z,998
2023-05-16T11:08:04.546Z,998
2023-05-16T11:09:21.798Z,998
2023-05-16T11:10:38.553Z,998
2023-05-16T11:11:56.674Z,998
2023-05-16T11:13:13.573Z,998
2023-05-16T11:14:30.552Z,997.9
2023-05-16T11:15:47.555Z,997.9
2023-05-16T11:17:04.641Z,997.9
2023-05-16T11:18:21.648Z,997.9
2023-05-16T11:19:38.585Z,997.9
2023-05-16T11:20:55.571Z,998
2023-05-16T11:22:12.608Z,997.9
2023-05-16T11:23:29.646Z,997.9
2023-05-16T11:24:46.647Z,997.9
2023-05-16T11:26:03.655Z,997.9
2023-05-16T11:27:20.606Z,997.9
2023-05-16T11:28:37.648Z,997.9
2023-05-16T11:29:54.611Z,997.9
2023-05-16T11:31:11.631Z,997.9
2023-05-16T11:32:28.618Z,997.9
2023-05-16T11:33:45.621Z,997.9
2023-05-16T11:35:02.648Z,998
2023-05-16T11:36:19.615Z,998
2023-05-16T11:37:36.630Z,998
2023-05-16T11:38:53.613Z,998
2023-05-16T11:40:10.749Z,997.9
2023-05-16T11:41:27.601Z,997.9
2023-05-16T11:42:44.635Z,997.9
2023-05-16T11:44:01.615Z,997.8
2023-05-16T11:45:18.634Z,997.8
2023-05-16T11:46:35.646Z,997.8
2023-05-16T11:47:52.860Z,997.8
2023-05-16T11:49:09.658Z,997.8
2023-05-16T11:50:26.628Z,997.9
2023-05-16T11:51:43.632Z,997.9
2023-05-16T11:53:01.354Z,997.9
2023-05-16T11:54:17.630Z,997.9
2023-05-16T11:56:51.636Z,997.9
2023-05-16T11:58:08.695Z,997.9
2023-05-16T11:59:25.668Z,998
2023-05-16T12:00:42.668Z,998
2023-05-16T12:01:59.717Z,997.9
2023-05-16T12:03:16.793Z,997.9
2023-05-16T12:04:35.076Z,998
2023-05-16T12:05:51.672Z,998
2023-05-16T12:07:08.688Z,998
2023-05-16T12:08:25.679Z,998
2023-05-16T12:09:42.687Z,998
2023-05-16T12:10:59.788Z,998.1
2023-05-16T12:12:16.714Z,998.1
2023-05-16T12:13:33.742Z,998
2023-05-16T12:14:50.740Z,998
2023-05-16T12:16:07.754Z,998
2023-05-16T12:17:25.185Z,998
2023-05-16T12:18:43.456Z,998
2023-05-16T12:19:58.745Z,998.1
2023-05-16T12:21:15.686Z,998.1
2023-05-16T12:22:32.737Z,998.1
2023-05-16T12:23:49.766Z,998.1
2023-05-16T12:25:06.721Z,998.1
2023-05-16T12:26:23.767Z,998.1
2023-05-16T12:27:41.110Z,998
2023-05-16T12:28:57.736Z,998.1
2023-05-16T12:30:15.010Z,998.1
2023-05-16T12:31:32.863Z,998.1
2023-05-16T12:32:50.028Z,998.1
2023-05-16T12:34:07.210Z,998.1
2023-05-16T12:35:24.750Z,998.1
2023-05-16T12:36:41.750Z,998.2
2023-05-16T12:37:58.718Z,998.2
2023-05-16T12:39:15.845Z,998.2
2023-05-16T12:40:32.778Z,998.1
2023-05-16T12:41:49.860Z,998.2
2023-05-16T12:43:06.727Z,998.2
2023-05-16T12:44:23.780Z,998.2
2023-05-16T12:45:40.906Z,998.2
2023-05-16T12:46:57.840Z,998.2
2023-05-16T12:48:14.830Z,998.2
2023-05-16T12:49:31.828Z,998.3
2023-05-16T12:50:51.566Z,998.3
2023-05-16T12:52:07.769Z,998.2
2023-05-16T12:53:24.734Z,998.3
2023-05-16T12:54:41.816Z,998.3
2023-05-16T12:55:58.740Z,998.3
2023-05-16T12:57:15.845Z,998.3
2023-05-16T12:58:32.800Z,998.3
2023-05-16T12:59:50.411Z,998.3
2023-05-16T13:01:06.766Z,998.3
2023-05-16T13:02:23.768Z,998.2
2023-05-16T13:03:40.810Z,998.2
2023-05-16T13:04:57.853Z,998.3
2023-05-16T13:06:14.760Z,998.3
2023-05-16T13:07:31.789Z,998.3
2023-05-16T13:08:48.783Z,998.3
2023-05-16T13:10:06.816Z,998.3
2023-05-16T13:11:23.783Z,998.3
2023-05-16T13:12:40.934Z,998.3
2023-05-16T13:13:57.765Z,998.3
2023-05-16T13:15:14.812Z,998.4
2023-05-16T13:16:31.829Z,998.3
2023-05-16T13:17:48.934Z,998.3
2023-05-16T13:19:05.825Z,998.4
2023-05-16T13:20:22.777Z,998.4
2023-05-16T13:21:40.833Z,998.3
2023-05-16T13:22:57.819Z,998.3
2023-05-16T13:24:14.795Z,998.4
2023-05-16T13:25:31.819Z,998.4
2023-05-16T13:26:48.909Z,998.4
2023-05-16T13:28:06.994Z,998.4
2023-05-16T13:29:23.904Z,998.4
2023-05-16T13:30:40.824Z,998.4
2023-05-16T13:31:57.843Z,998.4
2023-05-16T13:33:14.844Z,998.4
2023-05-16T13:34:31.811Z,998.4
2023-05-16T13:35:48.861Z,998.4
2023-05-16T13:37:05.809Z,998.3
2023-05-16T13:38:22.859Z,998.4
2023-05-16T13:39:39.840Z,998.4
2023-05-16T13:40:57.190Z,998.5
2023-05-16T13:42:16.854Z,998.5
2023-05-16T13:43:35.414Z,998.5
2023-05-16T13:44:53.166Z,998.5
2023-05-16T13:46:13.674Z,998.5
2023-05-16T13:47:31.142Z,998.5
2023-05-16T13:48:47.856Z,998.5
2023-05-16T13:50:04.879Z,998.5
2023-05-16T13:51:21.887Z,998.6
2023-05-16T13:52:38.831Z,998.5
2023-05-16T13:53:55.976Z,998.5
2023-05-16T13:55:12.994Z,998.5
2023-05-16T13:56:29.821Z,998.6
2023-05-16T13:57:46.830Z,998.6
2023-05-16T13:59:06.780Z,998.5
2023-05-16T14:01:38.088Z,998.6
2023-05-16T14:02:54.931Z,998.5
2023-05-16T14:04:11.898Z,998.6
2023-05-16T14:05:29.058Z,998.6
2023-05-16T14:06:45.847Z,998.5
2023-05-16T14:08:02.865Z,998.5
2023-05-16T14:09:20.138Z,998.5
2023-05-16T14:10:36.934Z,998.5
2023-05-16T14:11:53.927Z,998.5
2023-05-16T14:13:10.926Z,998.6
2023-05-16T14:14:28.273Z,998.6
2023-05-16T14:15:44.967Z,998.6
2023-05-16T14:17:01.850Z,998.6
2023-05-16T14:18:18.909Z,998.6
2023-05-16T14:19:35.940Z,998.6
2023-05-16T14:20:52.867Z,998.6
2023-05-16T14:22:09.869Z,998.6
2023-05-16T14:23:27.134Z,998.5
2023-05-16T14:24:43.889Z,998.5
2023-05-16T14:26:00.913Z,998.5
2023-05-16T14:27:18.134Z,998.5
2023-05-16T14:28:34.908Z,998.5
2023-05-16T14:29:52.015Z,998.5
2023-05-16T14:31:08.949Z,998.5
2023-05-16T14:32:25.988Z,998.5
2023-05-16T14:33:42.885Z,998.5
2023-05-16T14:34:59.890Z,998.4
2023-05-16T14:36:17.311Z,998.5
2023-05-16T14:37:33.940Z,998.4
2023-05-16T14:38:50.910Z,998.5
2023-05-16T14:40:07.927Z,998.5
2023-05-16T14:41:27.555Z,998.5
2023-05-16T14:42:46.466Z,998.4
2023-05-16T14:44:05.028Z,998.5
2023-05-16T14:45:22.048Z,998.5
2023-05-16T14:46:38.999Z,998.5
2023-05-16T14:47:55.979Z,998.5
2023-05-16T14:49:12.945Z,998.5
2023-05-16T14:50:29.914Z,998.4
2023-05-16T14:51:46.977Z,998.5
2023-05-16T14:53:03.921Z,998.5
2023-05-16T14:54:20.935Z,998.5
2023-05-16T14:55:37.963Z,998.4
2023-05-16T14:56:55.318Z,998.5
2023-05-16T14:58:11.922Z,998.4
2023-05-16T14:59:28.974Z,998.4
2023-05-16T15:00:46.091Z,998.4
2023-05-16T15:02:04.130Z,998.4
2023-05-16T15:03:21.202Z,998.4
2023-05-16T15:04:38.178Z,998.4
2023-05-16T15:05:55.924Z,998.4
2023-05-16T15:07:12.929Z,998.4
2023-05-16T15:08:29.946Z,998.4
2023-05-16T15:09:46.979Z,998.4
2023-05-16T15:11:03.982Z,998.5
2023-05-16T15:12:21.052Z,998.5
2023-05-16T15:13:38.029Z,998.5
2023-05-16T15:14:54.943Z,998.5
2023-05-16T15:16:12.189Z,998.6
2023-05-16T15:17:29.046Z,998.6
2023-05-16T15:18:46.031Z,998.7
2023-05-16T15:20:03.148Z,998.7
2023-05-16T15:21:19.953Z,998.7
2023-05-16T15:22:37.040Z,998.7
2023-05-16T15:23:54.058Z,998.7
2023-05-16T15:25:11.022Z,998.7
2023-05-16T15:26:27.978Z,998.7
2023-05-16T15:27:45.006Z,998.7
2023-05-16T15:29:02.240Z,998.7
2023-05-16T15:30:18.982Z,998.7
2023-05-16T15:31:36.149Z,998.7
2023-05-16T15:32:53.060Z,998.7
2023-05-16T15:34:10.049Z,998.7
2023-05-16T15:35:27.312Z,998.8
2023-05-16T15:36:44.010Z,998.7
2023-05-16T15:38:00.988Z,998.8
2023-05-16T15:39:18.030Z,998.7
2023-05-16T15:40:34.997Z,998.8
2023-05-16T15:42:09.049Z,998.7
2023-05-16T15:43:09.053Z,998.7
2023-05-16T15:44:26.068Z,998.7
2023-05-16T15:45:43.032Z,998.7
2023-05-16T15:47:00.109Z,998.8
2023-05-16T15:48:17.079Z,998.8
2023-05-16T15:49:34.005Z,998.8
2023-05-16T15:50:51.994Z,998.8
2023-05-16T15:52:09.032Z,998.8
2023-05-16T15:53:26.068Z,998.8
2023-05-16T15:54:43.007Z,998.9
2023-05-16T15:56:00.023Z,998.9
2023-05-16T15:57:17.012Z,998.9
2023-05-16T15:58:34.139Z,998.9
2023-05-16T15:59:51.037Z,998.9
2023-05-16T16:01:08.102Z,998.9
2023-05-16T16:02:25.165Z,998.9
2023-05-16T16:03:42.281Z,998.8
2023-05-16T16:04:59.029Z,998.9
2023-05-16T16:06:16.024Z,998.8
2023-05-16T16:07:33.041Z,998.8
2023-05-16T16:08:50.473Z,998.9
2023-05-16T16:10:07.061Z,998.9
2023-05-16T16:11:24.054Z,998.9
2023-05-16T16:12:41.053Z,998.9
2023-05-16T16:13:58.655Z,998.9
2023-05-16T16:15:16.058Z,998.9
2023-05-16T16:16:33.116Z,998.8
2023-05-16T16:17:50.133Z,998.8
2023-05-16T16:19:07.171Z,998.8
2023-05-16T16:20:24.066Z,998.8
2023-05-16T16:21:41.057Z,998.9
2023-05-16T16:22:58.107Z,998.8
2023-05-16T16:24:15.100Z,998.9
2023-05-16T16:25:32.146Z,998.9
2023-05-16T16:26:49.094Z,998.9
2023-05-16T16:28:06.103Z,998.9
2023-05-16T16:29:23.143Z,999
2023-05-16T16:30:40.073Z,999
2023-05-16T16:31:57.263Z,999
2023-05-16T16:33:14.649Z,998.9
2023-05-16T16:34:33.160Z,999
2023-05-16T16:35:50.084Z,998.9
2023-05-16T16:37:07.148Z,998.9
2023-05-16T16:38:24.127Z,999
2023-05-16T16:39:41.120Z,998.9
2023-05-16T16:40:58.074Z,998.9
2023-05-16T16:42:15.088Z,999
2023-05-16T16:43:32.106Z,999